Time;durP1;ratioP1;P1;durP2;ratioP2;P2;SDS_P1;SDS_P2;PMS_P1;PMS_P2;Temp;Humidity;BMP_temperature;BMP_pressure;BME280_temperature;BME280_humidity;BME280_pressure;Samples;Min_cycle;Max_cycle;Signal;HPM_P1;HPM_P2
2020/12/08 00:00:51;;;;;;;14.27;7.22;;;-4.80;78.00;;;;;;5034913;28;20445;-66
2020/12/08 00:03:16;;;;;;;17.48;7.70;;;-4.70;78.10;;;;;;5034914;28;20053;-66
2020/12/08 00:05:42;;;;;;;21.05;9.35;;;-4.80;78.00;;;;;;5033738;28;20459;-66
2020/12/08 00:08:08;;;;;;;17.65;8.25;;;-4.80;78.10;;;;;;5034480;28;20152;-66
2020/12/08 00:10:34;;;;;;;20.17;9.13;;;-4.70;78.20;;;;;;5033680;28;20036;-66
2020/12/08 00:13:00;;;;;;;14.95;7.70;;;-4.70;78.10;;;;;;5034837;28;20022;-66
2020/12/08 00:15:26;;;;;;;21.75;9.80;;;-4.80;78.10;;;;;;5047607;28;20029;-66
2020/12/08 00:17:51;;;;;;;16.58;9.40;;;-4.80;78.10;;;;;;5034781;28;20484;-66
2020/12/08 00:20:21;;;;;;;15.77;8.02;;;-4.80;78.20;;;;;;5033302;28;20391;-67
2020/12/08 00:22:47;;;;;;;16.35;8.25;;;-4.80;78.00;;;;;;5034396;28;20035;-66
2020/12/08 00:25:14;;;;;;;15.35;9.27;;;-4.80;78.10;;;;;;5034866;28;20108;-66
2020/12/08 00:27:40;;;;;;;20.73;10.20;;;-4.80;78.30;;;;;;5033263;28;20025;-67
2020/12/08 00:30:13;;;;;;;16.92;9.90;;;-4.80;78.20;;;;;;5033343;28;20036;-66
2020/12/08 00:32:40;;;;;;;25.98;12.60;;;-4.80;78.10;;;;;;5033013;28;20541;-67
2020/12/08 00:35:07;;;;;;;18.40;9.98;;;-4.80;78.00;;;;;;5033129;28;20025;-67
2020/12/08 00:37:34;;;;;;;19.98;8.95;;;-4.80;78.10;;;;;;5034448;28;20057;-66
2020/12/08 00:40:00;;;;;;;15.85;9.27;;;-4.90;78.30;;;;;;5034330;28;20412;-66
2020/12/08 00:42:26;;;;;;;17.45;9.45;;;-4.90;78.30;;;;;;5032654;28;20076;-67
2020/12/08 00:44:52;;;;;;;22.23;9.65;;;-4.90;78.60;;;;;;5033303;28;20052;-66
2020/12/08 00:47:18;;;;;;;14.48;8.25;;;-4.90;78.60;;;;;;5032953;28;20032;-67
2020/12/08 00:49:43;;;;;;;18.20;10.15;;;-4.90;78.70;;;;;;5033814;28;20371;-66
2020/12/08 00:52:09;;;;;;;16.00;8.85;;;-4.90;78.90;;;;;;5033979;28;20030;-66
2020/12/08 00:54:35;;;;;;;20.38;10.25;;;-4.90;78.80;;;;;;5032889;28;20109;-66
2020/12/08 00:57:01;;;;;;;19.38;9.73;;;-4.90;78.90;;;;;;5033915;28;20026;-67
2020/12/08 00:59:30;;;;;;;16.90;7.95;;;-4.90;79.00;;;;;;5034066;28;20071;-67
2020/12/08 01:02:00;;;;;;;13.13;7.10;;;-4.90;79.00;;;;;;5032615;28;20049;-67
2020/12/08 01:04:28;;;;;;;13.43;7.47;;;-4.90;79.10;;;;;;5032313;28;20040;-67
2020/12/08 01:06:54;;;;;;;24.45;10.55;;;-4.90;79.00;;;;;;5033455;28;20033;-67
2020/12/08 01:09:20;;;;;;;15.70;7.70;;;-4.90;79.10;;;;;;5032479;28;20384;-67
2020/12/08 01:11:46;;;;;;;18.52;9.90;;;-4.90;79.20;;;;;;5033826;28;20034;-67
2020/12/08 01:14:13;;;;;;;17.15;8.52;;;-4.90;79.20;;;;;;5032379;28;20387;-67
2020/12/08 01:16:39;;;;;;;20.45;10.80;;;-4.90;79.40;;;;;;5033796;28;20025;-68
2020/12/08 01:19:05;;;;;;;19.50;9.57;;;-4.90;79.60;;;;;;5033373;28;20382;-67
2020/12/08 01:21:31;;;;;;;18.15;9.50;;;-4.90;79.70;;;;;;5033519;28;20021;-67
2020/12/08 01:23:57;;;;;;;20.20;8.90;;;-4.90;79.50;;;;;;5033993;28;20037;-67
2020/12/08 01:26:24;;;;;;;20.35;11.52;;;-4.90;79.40;;;;;;5033214;28;20522;-67
2020/12/08 01:28:50;;;;;;;14.68;8.27;;;-4.90;79.40;;;;;;5033249;28;20442;-67
2020/12/08 01:31:16;;;;;;;22.45;9.60;;;-5.00;79.40;;;;;;5033162;28;20087;-67
2020/12/08 01:33:42;;;;;;;14.90;7.22;;;-5.00;79.60;;;;;;5032285;28;20443;-67
2020/12/08 01:36:08;;;;;;;23.10;12.48;;;-5.00;80.50;;;;;;5033384;28;20087;-67
2020/12/08 01:38:37;;;;;;;16.73;8.80;;;-5.00;80.00;;;;;;5033511;28;20037;-67
2020/12/08 01:41:06;;;;;;;21.05;11.40;;;-5.00;80.10;;;;;;5032213;28;20463;-67
2020/12/08 01:43:31;;;;;;;14.45;8.30;;;-5.00;80.10;;;;;;5033075;28;20056;-67
2020/12/08 01:45:57;;;;;;;18.33;10.55;;;-4.90;80.40;;;;;;5033111;28;20025;-67
2020/12/08 01:48:23;;;;;;;21.00;9.98;;;-4.90;80.40;;;;;;5032937;28;20049;-67
2020/12/08 01:50:49;;;;;;;17.10;8.68;;;-4.90;80.40;;;;;;5032928;28;20079;-67
2020/12/08 01:53:16;;;;;;;22.90;11.18;;;-4.90;80.40;;;;;;5031797;28;20115;-67
2020/12/08 01:55:41;;;;;;;22.45;11.20;;;-4.90;80.40;;;;;;5031666;28;20029;-67
2020/12/08 01:58:20;;;;;;;24.88;12.20;;;-4.90;80.50;;;;;;5031885;28;20051;-67
2020/12/08 02:00:50;;;;;;;18.75;10.40;;;-4.90;80.50;;;;;;5032899;28;20072;-67
2020/12/08 02:03:16;;;;;;;20.77;10.77;;;-4.90;80.60;;;;;;5031117;28;20175;-66
2020/12/08 02:05:46;;;;;;;28.98;11.93;;;-4.90;80.50;;;;;;5031642;28;20151;-66
2020/12/08 02:08:11;;;;;;;27.15;11.32;;;-4.90;80.50;;;;;;5032224;28;20030;-67
2020/12/08 02:10:37;;;;;;;19.15;10.00;;;-4.90;80.60;;;;;;5032809;28;20388;-67
2020/12/08 02:13:04;;;;;;;19.60;10.95;;;-4.90;80.70;;;;;;5031958;28;20021;-67
2020/12/08 02:15:31;;;;;;;20.60;9.88;;;-4.90;80.70;;;;;;5031406;28;20026;-67
2020/12/08 02:17:57;;;;;;;21.05;11.75;;;-4.90;80.60;;;;;;5031772;28;20337;-67
2020/12/08 02:20:27;;;;;;;25.73;12.32;;;-4.90;80.80;;;;;;5033095;28;20037;-67
2020/12/08 02:22:56;;;;;;;21.08;10.80;;;-4.90;80.80;;;;;;5032534;28;20163;-67
2020/12/08 02:25:22;;;;;;;21.45;10.90;;;-4.90;80.90;;;;;;5032868;28;20018;-67
2020/12/08 02:27:48;;;;;;;25.85;11.40;;;-4.90;80.90;;;;;;5031299;28;20041;-66
2020/12/08 02:30:14;;;;;;;16.33;9.05;;;-4.90;81.10;;;;;;5032706;28;20033;-67
2020/12/08 02:32:40;;;;;;;19.02;9.93;;;-4.90;81.00;;;;;;5030984;28;20060;-67
2020/12/08 02:35:06;;;;;;;21.88;11.52;;;-4.90;81.00;;;;;;5031575;28;20537;-67
2020/12/08 02:37:33;;;;;;;21.77;10.75;;;-4.90;81.20;;;;;;5031309;28;20025;-68
2020/12/08 02:39:58;;;;;;;26.63;12.48;;;-4.90;81.00;;;;;;5031384;28;20442;-67
2020/12/08 02:42:24;;;;;;;24.70;12.60;;;-4.90;81.00;;;;;;5032901;28;20057;-66
2020/12/08 02:44:50;;;;;;;17.70;10.38;;;-4.90;81.00;;;;;;5032409;28;20025;-66
2020/12/08 02:47:16;;;;;;;28.25;14.65;;;-4.90;81.00;;;;;;5031554;28;20124;-66
2020/12/08 02:49:41;;;;;;;21.15;10.18;;;-4.90;81.00;;;;;;5032435;28;20033;-67
2020/12/08 02:52:08;;;;;;;17.75;9.35;;;-4.90;81.00;;;;;;5032401;28;20025;-66
2020/12/08 02:54:33;;;;;;;21.13;11.32;;;-4.90;81.00;;;;;;5032536;28;20032;-67
2020/12/08 02:57:05;;;;;;;23.52;11.45;;;-5.00;81.00;;;;;;5032023;28;20033;-66
2020/12/08 02:59:35;;;;;;;15.23;10.00;;;-4.90;81.30;;;;;;5032745;28;20426;-66
2020/12/08 03:02:01;;;;;;;24.20;11.10;;;-4.90;81.10;;;;;;5030881;28;20049;-66
2020/12/08 03:04:27;;;;;;;21.00;11.30;;;-4.90;81.00;;;;;;5032491;28;20029;-67
2020/12/08 03:06:52;;;;;;;23.10;11.68;;;-5.00;80.90;;;;;;5032137;28;20392;-66
2020/12/08 03:09:18;;;;;;;20.08;10.32;;;-5.00;80.90;;;;;;5030975;28;20021;-66
2020/12/08 03:11:44;;;;;;;24.50;12.50;;;-5.00;81.00;;;;;;5032582;28;20356;-66
2020/12/08 03:14:10;;;;;;;27.02;12.65;;;-5.00;81.00;;;;;;5031497;28;20064;-66
2020/12/08 03:16:36;;;;;;;29.50;14.25;;;-5.00;81.40;;;;;;5034530;28;20402;-68
2020/12/08 03:19:02;;;;;;;29.27;11.95;;;-5.00;81.40;;;;;;5035862;28;20121;-67
2020/12/08 03:21:35;;;;;;;30.10;13.73;;;-5.00;81.40;;;;;;5034562;28;20533;-67
2020/12/08 03:24:01;;;;;;;26.88;11.52;;;-5.00;81.50;;;;;;5034319;28;20029;-67
2020/12/08 03:26:26;;;;;;;27.05;12.10;;;-5.00;81.40;;;;;;5035711;28;20026;-67
2020/12/08 03:28:53;;;;;;;24.63;13.00;;;-5.00;81.30;;;;;;5035607;28;20087;-67
2020/12/08 03:31:19;;;;;;;26.92;11.77;;;-5.00;81.30;;;;;;5035581;28;20029;-67
2020/12/08 03:33:44;;;;;;;28.65;13.32;;;-5.00;81.40;;;;;;5035551;28;20029;-67
2020/12/08 03:36:20;;;;;;;27.95;13.10;;;-5.00;81.40;;;;;;5035405;28;20032;-67
2020/12/08 03:38:47;;;;;;;30.38;12.70;;;-5.00;81.50;;;;;;5035453;28;20029;-67
2020/12/08 03:41:20;;;;;;;22.95;10.73;;;-5.00;81.50;;;;;;5035679;28;20038;-65
2020/12/08 03:43:47;;;;;;;19.90;11.80;;;-5.10;81.50;;;;;;5034209;28;20045;-65
2020/12/08 03:46:17;;;;;;;22.52;10.90;;;-5.10;81.70;;;;;;5035300;28;20021;-68
2020/12/08 03:48:43;;;;;;;19.98;9.93;;;-5.10;81.70;;;;;;5036179;28;20029;-68
2020/12/08 03:51:15;;;;;;;30.40;13.20;;;-5.10;81.80;;;;;;5047946;28;20087;-66
2020/12/08 03:53:41;;;;;;;21.52;11.35;;;-5.10;82.00;;;;;;5035178;28;20025;-65
2020/12/08 03:56:15;;;;;;;24.85;13.02;;;-5.10;82.00;;;;;;5035337;28;20032;-66
2020/12/08 03:58:41;;;;;;;26.70;13.20;;;-5.10;82.10;;;;;;5035069;28;20495;-66
2020/12/08 04:01:22;;;;;;;32.45;14.25;;;-5.00;82.10;;;;;;5035272;28;20159;-66
2020/12/08 04:03:49;;;;;;;30.80;13.02;;;-5.00;82.10;;;;;;5033878;28;20120;-66
2020/12/08 04:06:16;;;;;;;28.23;12.38;;;-5.00;81.90;;;;;;5033793;28;20026;-66
2020/12/08 04:08:43;;;;;;;32.33;14.35;;;-5.00;81.90;;;;;;5034566;28;20083;-66
2020/12/08 04:11:09;;;;;;;32.17;14.15;;;-5.00;81.80;;;;;;5033729;28;20116;-66
2020/12/08 04:13:35;;;;;;;35.78;15.13;;;-5.00;81.80;;;;;;5033264;28;20021;-66
2020/12/08 04:16:01;;;;;;;35.72;16.48;;;-4.90;81.70;;;;;;5034535;28;20505;-66
2020/12/08 04:18:27;;;;;;;26.25;13.43;;;-4.90;81.60;;;;;;5034890;28;20036;-65
2020/12/08 04:20:53;;;;;;;33.13;12.82;;;-4.90;81.60;;;;;;5034413;28;20101;-67
2020/12/08 04:23:19;;;;;;;31.70;15.98;;;-4.90;81.40;;;;;;5034756;28;20094;-66
2020/12/08 04:25:48;;;;;;;25.90;11.40;;;-4.90;81.30;;;;;;5033970;28;20373;-66
2020/12/08 04:28:14;;;;;;;27.55;13.23;;;-5.00;81.10;;;;;;5034908;28;20029;-66
2020/12/08 04:30:40;;;;;;;26.65;12.05;;;-5.00;81.00;;;;;;5032768;28;20457;-66
2020/12/08 04:33:07;;;;;;;28.65;13.50;;;-5.00;81.10;;;;;;5034551;28;20028;-66
2020/12/08 04:35:33;;;;;;;33.00;16.10;;;-5.00;81.10;;;;;;5034804;28;20025;-66
2020/12/08 04:37:59;;;;;;;28.58;14.60;;;-5.10;81.40;;;;;;5032854;28;20034;-66
2020/12/08 04:40:25;;;;;;;29.83;13.73;;;-5.10;81.40;;;;;;5034303;28;20030;-66
2020/12/08 04:42:54;;;;;;;25.92;13.02;;;-5.00;81.50;;;;;;5034262;28;20475;-67
2020/12/08 04:45:20;;;;;;;30.73;14.07;;;-5.00;81.60;;;;;;5034369;28;20029;-66
2020/12/08 04:47:47;;;;;;;25.73;12.77;;;-5.00;81.70;;;;;;5033696;28;20037;-67
2020/12/08 04:50:15;;;;;;;34.30;16.50;;;-5.00;81.60;;;;;;5032635;28;20030;-67
2020/12/08 04:52:41;;;;;;;49.45;19.20;;;-5.00;81.50;;;;;;5032525;28;20483;-67
2020/12/08 04:55:07;;;;;;;48.15;19.67;;;-5.00;81.70;;;;;;5033991;28;20487;-68
2020/12/08 04:57:33;;;;;;;34.10;14.48;;;-4.90;81.80;;;;;;5033849;28;20140;-67
2020/12/08 05:00:12;;;;;;;26.30;11.55;;;-4.90;81.90;;;;;;5047141;28;20032;-67
2020/12/08 05:02:49;;;;;;;30.92;13.77;;;-4.90;81.90;;;;;;5039794;28;20053;-68
2020/12/08 05:05:16;;;;;;;33.40;15.32;;;-4.90;81.90;;;;;;5042048;28;20025;-67
2020/12/08 05:07:42;;;;;;;27.60;12.50;;;-4.90;81.90;;;;;;5042903;28;20021;-67
2020/12/08 05:10:08;;;;;;;30.00;14.05;;;-4.90;82.50;;;;;;5052161;28;20021;-67
2020/12/08 05:12:34;;;;;;;31.33;14.07;;;-4.90;81.80;;;;;;5036292;28;20425;-68
2020/12/08 05:15:00;;;;;;;37.53;15.02;;;-4.90;82.10;;;;;;5044974;28;20141;-67
2020/12/08 05:17:28;;;;;;;30.95;12.77;;;-4.90;82.20;;;;;;5039730;28;20060;-68
2020/12/08 05:20:08;;;;;;;31.15;14.10;;;-4.90;82.30;;;;;;5039961;28;20025;-67
2020/12/08 05:22:35;;;;;;;46.35;17.58;;;-4.90;82.20;;;;;;5037560;28;20037;-70
2020/12/08 05:25:18;;;;;;;47.75;18.58;;;-4.90;82.10;;;;;;5046063;28;20067;-68
2020/12/08 05:27:50;;;;;;;23.17;10.30;;;-4.90;82.30;;;;;;5039515;28;20061;-68
2020/12/08 05:30:16;;;;;;;36.30;14.00;;;-4.90;82.10;;;;;;5039572;28;20120;-67
2020/12/08 05:32:43;;;;;;;31.02;14.18;;;-4.90;82.20;;;;;;5035163;28;20109;-68
2020/12/08 05:35:11;;;;;;;27.30;13.68;;;-4.90;82.40;;;;;;5032465;28;20025;-67
2020/12/08 05:37:39;;;;;;;39.40;17.10;;;-4.90;82.50;;;;;;5039412;28;20382;-67
2020/12/08 05:40:10;;;;;;;32.65;12.55;;;-4.90;82.50;;;;;;5042301;28;20024;-69
2020/12/08 05:42:41;;;;;;;29.92;12.40;;;-4.90;82.70;;;;;;5042084;28;20068;-68
2020/12/08 05:45:10;;;;;;;30.67;13.88;;;-5.00;82.70;;;;;;5045356;28;20037;-67
2020/12/08 05:47:57;;;;;;;28.77;12.40;;;-5.00;82.80;;;;;;5036479;28;20036;-68
2020/12/08 05:50:26;;;;;;;25.90;9.85;;;-5.00;83.10;;;;;;5054748;28;20045;-67
2020/12/08 05:52:55;;;;;;;33.67;13.52;;;-5.00;82.80;;;;;;5034603;28;20032;-67
2020/12/08 05:55:23;;;;;;;27.67;12.93;;;-5.00;82.40;;;;;;5032382;28;20124;-67
2020/12/08 05:57:50;;;;;;;32.08;13.23;;;-5.10;82.20;;;;;;5041396;28;20025;-68
2020/12/08 06:00:29;;;;;;;24.33;10.98;;;-5.20;82.20;;;;;;5044888;28;20075;-68
2020/12/08 06:03:10;;;;;;;28.38;13.65;;;-5.20;82.40;;;;;;5031472;28;20050;-68
2020/12/08 06:05:36;;;;;;;33.60;14.63;;;-5.20;82.60;;;;;;5044105;28;20030;-67
2020/12/08 06:08:19;;;;;;;36.05;12.38;;;-5.20;82.80;;;;;;5037350;28;20479;-67
2020/12/08 06:10:50;;;;;;;27.17;12.10;;;-5.10;83.10;;;;;;5045759;28;20037;-69
2020/12/08 06:13:23;;;;;;;32.90;13.70;;;-5.10;83.00;;;;;;5050760;28;20025;-69
2020/12/08 06:15:48;;;;;;;30.25;11.80;;;-5.10;83.20;;;;;;5040421;28;20029;-67
2020/12/08 06:18:14;;;;;;;35.88;17.17;;;-5.10;83.10;;;;;;5042799;28;20039;-67
2020/12/08 06:20:40;;;;;;;31.45;14.43;;;-5.00;83.30;;;;;;5041997;28;20033;-69
2020/12/08 06:23:06;;;;;;;32.05;13.35;;;-5.00;83.50;;;;;;5039778;28;20067;-67
2020/12/08 06:25:32;;;;;;;39.35;15.65;;;-4.90;83.70;;;;;;5031403;28;20057;-72
2020/12/08 06:28:03;;;;;;;32.58;15.18;;;-4.90;83.70;;;;;;5051441;28;20035;-69
2020/12/08 06:30:29;;;;;;;26.58;12.27;;;-4.80;83.70;;;;;;5039510;28;20046;-79
2020/12/08 06:32:54;;;;;;;35.42;15.60;;;-4.80;83.40;;;;;;5038845;28;20032;-67
2020/12/08 06:35:20;;;;;;;41.38;15.93;;;-4.90;83.20;;;;;;5035035;28;20097;-67
2020/12/08 06:37:52;;;;;;;45.28;17.33;;;-4.80;83.50;;;;;;5032601;28;20041;-73
2020/12/08 06:40:25;;;;;;;30.27;12.07;;;-4.80;83.70;;;;;;5046021;28;20028;-66
2020/12/08 06:42:52;;;;;;;30.92;14.23;;;-4.70;83.80;;;;;;5032695;28;20068;-65
2020/12/08 06:45:27;;;;;;;24.52;11.23;;;-4.70;83.80;;;;;;5040738;28;20056;-65
2020/12/08 06:47:52;;;;;;;37.78;14.55;;;-4.70;83.70;;;;;;5055535;28;20108;-68
2020/12/08 06:50:23;;;;;;;27.48;12.32;;;-4.70;83.60;;;;;;5035209;28;20177;-65
2020/12/08 06:52:56;;;;;;;23.77;10.40;;;-4.70;83.60;;;;;;5039362;28;20091;-65
2020/12/08 06:55:23;;;;;;;32.63;13.48;;;-4.70;83.50;;;;;;5035888;28;20097;-65
2020/12/08 06:57:49;;;;;;;28.23;13.30;;;-4.70;83.30;;;;;;5034037;28;20029;-65
2020/12/08 07:00:15;;;;;;;28.08;11.32;;;-4.70;83.40;;;;;;5035895;28;20522;-67
2020/12/08 07:02:50;;;;;;;28.40;11.63;;;-4.70;83.40;;;;;;5032847;28;20107;-67
2020/12/08 07:05:36;;;;;;;36.05;14.82;;;-4.70;83.50;;;;;;5034884;28;20091;-67
2020/12/08 07:08:04;;;;;;;42.10;16.98;;;-4.60;83.80;;;;;;5036032;28;20104;-65
2020/12/08 07:10:35;;;;;;;38.97;17.45;;;-4.60;83.80;;;;;;5034552;28;20033;-65
2020/12/08 07:13:00;;;;;;;31.13;14.15;;;-4.60;83.70;;;;;;5036154;28;20045;-65
2020/12/08 07:15:27;;;;;;;40.97;18.85;;;-4.60;83.80;;;;;;5034498;28;20034;-65
2020/12/08 07:17:58;;;;;;;35.22;14.55;;;-4.50;83.90;;;;;;5034592;28;20021;-65
2020/12/08 07:20:27;;;;;;;34.97;14.10;;;-4.50;83.70;;;;;;5034658;28;20116;-65
2020/12/08 07:22:53;;;;;;;48.33;17.63;;;-4.50;83.50;;;;;;5035387;28;20025;-65
2020/12/08 07:25:21;;;;;;;48.05;19.90;;;-4.40;83.60;;;;;;5034225;28;20488;-66
2020/12/08 07:27:53;;;;;;;36.55;16.58;;;-4.40;83.70;;;;;;5033268;28;20032;-65
2020/12/08 07:30:26;;;;;;;39.83;16.85;;;-4.40;83.90;;;;;;5035952;28;20035;-66
2020/12/08 07:32:55;;;;;;;41.75;17.92;;;-4.30;83.70;;;;;;5034005;28;20486;-65
2020/12/08 07:35:26;;;;;;;40.22;18.17;;;-4.30;83.80;;;;;;5034294;28;20027;-66
2020/12/08 07:37:57;;;;;;;58.17;18.08;;;-4.20;84.00;;;;;;5035143;28;20033;-66
2020/12/08 07:40:38;;;;;;;33.95;14.65;;;-4.10;84.00;;;;;;5035593;28;20467;-66
2020/12/08 07:43:05;;;;;;;45.63;18.35;;;-4.00;83.50;;;;;;5035450;28;20049;-66
2020/12/08 07:45:32;;;;;;;49.20;20.85;;;-4.00;83.50;;;;;;5033955;28;20041;-66
2020/12/08 07:48:00;;;;;;;45.00;17.23;;;-3.90;83.40;;;;;;5033863;28;20434;-66
2020/12/08 07:50:28;;;;;;;46.47;17.83;;;-3.80;84.00;;;;;;5035101;28;20111;-66
2020/12/08 07:52:59;;;;;;;46.42;19.75;;;-3.60;83.30;;;;;;5033469;28;20034;-66
2020/12/08 07:55:27;;;;;;;53.25;19.98;;;-3.50;83.10;;;;;;5034087;28;20480;-66
2020/12/08 07:57:53;;;;;;;35.47;17.05;;;-3.40;82.80;;;;;;5034002;28;20025;-65
2020/12/08 08:00:19;;;;;;;34.67;13.90;;;-3.30;82.70;;;;;;5034509;28;20037;-63
2020/12/08 08:02:48;;;;;;;30.88;15.93;;;-3.20;82.50;;;;;;5035054;28;20046;-65
2020/12/08 08:05:13;;;;;;;30.80;13.40;;;-3.10;82.90;;;;;;5034821;28;20034;-66
2020/12/08 08:07:39;;;;;;;38.60;15.18;;;-3.00;82.10;;;;;;5035093;28;20044;-65
2020/12/08 08:10:05;;;;;;;39.90;17.48;;;-3.00;81.50;;;;;;5034512;28;20121;-65
2020/12/08 08:12:31;;;;;;;41.42;16.73;;;-2.90;81.50;;;;;;5033356;28;20030;-65
2020/12/08 08:14:57;;;;;;;52.72;16.65;;;-2.90;81.70;;;;;;5033318;28;20044;-65
2020/12/08 08:17:23;;;;;;;31.35;14.38;;;-2.90;81.30;;;;;;5034612;28;20034;-65
2020/12/08 08:19:48;;;;;;;33.55;14.02;;;-3.00;80.90;;;;;;5033278;28;20033;-65
2020/12/08 08:22:14;;;;;;;27.40;12.57;;;-3.00;80.90;;;;;;5034371;28;20034;-66
2020/12/08 08:24:40;;;;;;;25.02;11.40;;;-3.10;80.60;;;;;;5033038;28;20430;-65
2020/12/08 08:27:05;;;;;;;26.67;11.05;;;-3.20;80.60;;;;;;5034441;28;20029;-65
2020/12/08 08:29:31;;;;;;;32.67;12.18;;;-3.40;80.00;;;;;;5034299;28;20037;-65
2020/12/08 08:31:57;;;;;;;35.38;16.17;;;-3.50;80.60;;;;;;5033290;28;20067;-65
2020/12/08 08:34:23;;;;;;;38.08;18.75;;;-3.40;81.40;;;;;;5032831;28;20532;-65
2020/12/08 08:36:53;;;;;;;52.75;21.55;;;-3.30;82.10;;;;;;5034178;28;20070;-65
2020/12/08 08:39:20;;;;;;;46.58;18.48;;;-3.20;82.40;;;;;;5033145;28;20515;-66
2020/12/08 08:41:46;;;;;;;20.48;9.80;;;-3.00;82.00;;;;;;5033124;28;20040;-64
2020/12/08 08:44:12;;;;;;;31.05;14.52;;;-3.00;80.90;;;;;;5033073;28;20029;-65
2020/12/08 08:46:41;;;;;;;46.88;19.08;;;-3.20;79.70;;;;;;5032721;28;20383;-65
2020/12/08 08:49:13;;;;;;;30.77;13.77;;;-3.40;79.70;;;;;;5032656;28;20383;-65
2020/12/08 08:51:40;;;;;;;24.13;10.82;;;-3.50;79.80;;;;;;5032632;28;20476;-65
2020/12/08 08:54:06;;;;;;;33.88;14.65;;;-3.60;80.20;;;;;;5034314;28;20093;-64
2020/12/08 08:56:31;;;;;;;25.15;11.18;;;-3.60;80.80;;;;;;5033974;28;20104;-64
2020/12/08 08:58:57;;;;;;;30.25;12.25;;;-3.60;80.40;;;;;;5032314;28;20099;-65
2020/12/08 09:01:23;;;;;;;33.22;14.60;;;-3.70;80.20;;;;;;5033847;28;20022;-65
2020/12/08 09:03:48;;;;;;;35.38;16.23;;;-3.70;80.50;;;;;;5033831;28;20403;-65
2020/12/08 09:06:14;;;;;;;40.58;15.30;;;-3.80;80.60;;;;;;5033836;28;20053;-65
2020/12/08 09:08:40;;;;;;;38.67;16.98;;;-3.80;80.60;;;;;;5032092;28;20034;-65
2020/12/08 09:11:06;;;;;;;26.63;13.13;;;-3.90;80.00;;;;;;5034138;28;20029;-64
2020/12/08 09:13:32;;;;;;;28.75;13.38;;;-3.90;80.50;;;;;;5032419;28;20032;-65
2020/12/08 09:15:57;;;;;;;31.27;13.15;;;-4.00;80.20;;;;;;5033497;28;20095;-65
2020/12/08 09:18:23;;;;;;;24.90;11.43;;;-4.00;80.30;;;;;;5033975;28;20108;-64
2020/12/08 09:20:49;;;;;;;27.38;11.90;;;-4.00;80.70;;;;;;5033111;28;20113;-65
2020/12/08 09:23:15;;;;;;;31.98;13.10;;;-4.00;80.70;;;;;;5033980;28;20075;-65
2020/12/08 09:25:40;;;;;;;29.55;11.50;;;-4.00;80.80;;;;;;5033518;28;20025;-66
2020/12/08 09:28:06;;;;;;;39.00;16.00;;;-4.00;80.60;;;;;;5033503;28;20025;-65
2020/12/08 09:30:32;;;;;;;35.28;14.57;;;-4.00;80.60;;;;;;5031978;28;20036;-65
2020/12/08 09:32:58;;;;;;;40.00;15.13;;;-3.90;80.60;;;;;;5033151;28;20032;-65
2020/12/08 09:35:23;;;;;;;33.22;13.80;;;-3.90;80.60;;;;;;5033414;28;20029;-65
2020/12/08 09:37:49;;;;;;;38.80;16.15;;;-3.90;80.70;;;;;;5033366;28;20453;-65
2020/12/08 09:40:15;;;;;;;28.40;12.38;;;-3.90;80.50;;;;;;5033297;28;20490;-66
2020/12/08 09:42:41;;;;;;;29.42;11.77;;;-3.90;80.30;;;;;;5033246;28;20036;-65
2020/12/08 09:45:08;;;;;;;25.45;11.13;;;-4.00;80.30;;;;;;5033168;28;20071;-65
2020/12/08 09:47:35;;;;;;;30.23;13.18;;;-4.00;80.30;;;;;;5033048;28;20029;-64
2020/12/08 09:50:03;;;;;;;32.25;12.80;;;-4.00;80.20;;;;;;5032761;28;20025;-65
2020/12/08 09:52:29;;;;;;;36.47;14.90;;;-4.00;80.40;;;;;;5033067;28;20378;-64
2020/12/08 09:54:55;;;;;;;42.63;17.75;;;-4.00;80.70;;;;;;5033031;28;20039;-65
2020/12/08 09:57:23;;;;;;;31.80;14.07;;;-4.00;80.60;;;;;;5032909;28;20017;-65
2020/12/08 09:59:50;;;;;;;32.10;13.02;;;-4.00;80.70;;;;;;5031860;28;20025;-66
2020/12/08 10:02:15;;;;;;;35.10;13.52;;;-3.90;80.70;;;;;;5032945;28;20049;-65
2020/12/08 10:04:41;;;;;;;31.98;14.07;;;-3.90;80.80;;;;;;5033092;28;20037;-65
2020/12/08 10:07:07;;;;;;;41.65;15.82;;;-3.90;80.10;;;;;;5032749;28;20089;-65
2020/12/08 10:09:33;;;;;;;44.28;17.35;;;-3.90;80.40;;;;;;5032864;28;20384;-65
2020/12/08 10:11:58;;;;;;;42.28;16.17;;;-3.90;80.50;;;;;;5031719;28;20056;-65
2020/12/08 10:14:24;;;;;;;45.90;16.70;;;-3.90;80.40;;;;;;5031384;28;20049;-65
2020/12/08 10:16:50;;;;;;;30.83;12.13;;;-3.90;80.30;;;;;;5031630;28;20078;-65
2020/12/08 10:19:16;;;;;;;27.92;12.57;;;-3.90;80.50;;;;;;5033062;28;20032;-65
2020/12/08 10:21:42;;;;;;;27.35;11.75;;;-3.90;80.60;;;;;;5032927;28;20029;-65
2020/12/08 10:24:08;;;;;;;47.80;18.25;;;-3.90;80.40;;;;;;5048550;28;20082;-64
2020/12/08 10:26:33;;;;;;;51.75;20.70;;;-3.90;80.50;;;;;;5037127;28;20029;-65
2020/12/08 10:28:59;;;;;;;28.20;11.10;;;-3.90;80.60;;;;;;5036472;28;20029;-65
2020/12/08 10:31:26;;;;;;;30.95;13.88;;;-3.80;80.90;;;;;;5036735;28;20025;-64
2020/12/08 10:33:54;;;;;;;31.67;15.60;;;-3.80;81.30;;;;;;5036602;28;20460;-65
2020/12/08 10:36:22;;;;;;;27.83;11.45;;;-3.70;80.70;;;;;;5036691;28;20028;-65
2020/12/08 10:38:48;;;;;;;32.83;11.32;;;-3.70;80.70;;;;;;5036376;28;20485;-65
2020/12/08 10:41:14;;;;;;;27.58;12.60;;;-3.70;80.70;;;;;;5036249;28;20021;-65
2020/12/08 10:43:39;;;;;;;28.92;12.85;;;-3.70;80.60;;;;;;5036507;28;20034;-64
2020/12/08 10:46:05;;;;;;;25.33;11.45;;;-3.70;80.90;;;;;;5036515;28;20017;-65
2020/12/08 10:48:32;;;;;;;26.98;12.25;;;-3.60;80.70;;;;;;5035095;28;20025;-65
2020/12/08 10:50:58;;;;;;;29.20;13.25;;;-3.60;80.60;;;;;;5036259;28;20480;-65
2020/12/08 10:53:24;;;;;;;32.95;14.02;;;-3.60;80.80;;;;;;5036073;28;20029;-65
2020/12/08 10:55:52;;;;;;;28.90;12.82;;;-3.60;80.70;;;;;;5036680;28;20038;-65
2020/12/08 10:58:18;;;;;;;42.42;16.20;;;-3.60;80.60;;;;;;5036510;28;20083;-65
2020/12/08 11:00:43;;;;;;;27.48;11.07;;;-3.60;81.10;;;;;;5035855;28;20523;-65
2020/12/08 11:03:10;;;;;;;37.35;15.10;;;-3.60;80.60;;;;;;5036184;28;20085;-65
2020/12/08 11:05:36;;;;;;;31.27;12.85;;;-3.60;80.80;;;;;;5035895;28;20036;-66
2020/12/08 11:08:01;;;;;;;42.22;16.77;;;-3.60;80.90;;;;;;5034737;28;20022;-65
2020/12/08 11:10:27;;;;;;;41.78;18.90;;;-3.50;81.00;;;;;;5035632;28;20566;-66
2020/12/08 11:12:53;;;;;;;51.33;22.05;;;-3.50;80.70;;;;;;5035763;28;20044;-66
2020/12/08 11:15:19;;;;;;;32.92;13.50;;;-3.50;80.80;;;;;;5036308;28;20096;-66
2020/12/08 11:17:44;;;;;;;28.52;12.60;;;-3.50;80.80;;;;;;5034665;28;20108;-65
2020/12/08 11:20:10;;;;;;;41.72;17.50;;;-3.50;80.90;;;;;;5035979;28;20025;-66
2020/12/08 11:22:36;;;;;;;33.42;14.85;;;-3.40;81.00;;;;;;5038566;28;20024;-66
2020/12/08 11:25:03;;;;;;;30.40;14.35;;;-3.40;81.00;;;;;;5046482;28;20084;-66
2020/12/08 11:27:29;;;;;;;30.42;12.65;;;-3.40;81.00;;;;;;5035776;28;20021;-65
2020/12/08 11:29:54;;;;;;;36.00;15.73;;;-3.40;81.60;;;;;;5035831;28;20029;-64
2020/12/08 11:32:20;;;;;;;41.35;16.15;;;-3.40;80.90;;;;;;5034130;28;20075;-64
2020/12/08 11:34:46;;;;;;;35.35;15.30;;;-3.40;81.00;;;;;;5034222;28;20080;-64
2020/12/08 11:37:12;;;;;;;63.35;27.45;;;-3.40;81.20;;;;;;5035208;28;20383;-63
2020/12/08 11:39:38;;;;;;;37.38;14.88;;;-3.30;81.50;;;;;;5035205;28;20055;-65
2020/12/08 11:42:06;;;;;;;24.52;12.45;;;-3.40;81.50;;;;;;5034408;28;20095;-64
2020/12/08 11:44:32;;;;;;;32.13;13.10;;;-3.30;81.30;;;;;;5035329;28;20025;-64
2020/12/08 11:46:57;;;;;;;25.27;11.38;;;-3.30;81.00;;;;;;5034983;28;20519;-65
2020/12/08 11:49:23;;;;;;;35.17;15.68;;;-3.40;81.00;;;;;;5048949;28;20063;-65
2020/12/08 11:51:49;;;;;;;40.17;17.20;;;-3.40;81.00;;;;;;5035024;28;20460;-65
2020/12/08 11:54:15;;;;;;;32.85;14.50;;;-3.40;81.40;;;;;;5035198;28;20025;-66
2020/12/08 11:56:41;;;;;;;34.15;14.48;;;-3.30;81.50;;;;;;5035166;28;20132;-65
2020/12/08 11:59:07;;;;;;;31.75;14.27;;;-3.30;81.50;;;;;;5033895;28;20057;-64
2020/12/08 12:01:33;;;;;;;36.92;16.40;;;-3.30;81.70;;;;;;5034145;28;20083;-65
2020/12/08 12:03:58;;;;;;;35.85;15.50;;;-3.20;81.90;;;;;;5033503;28;20048;-64
2020/12/08 12:06:24;;;;;;;36.80;15.63;;;-3.20;81.80;;;;;;5033583;28;20484;-65
2020/12/08 12:08:50;;;;;;;68.00;29.25;;;-3.20;81.80;;;;;;5032988;28;20121;-67
2020/12/08 12:11:15;;;;;;;64.97;23.15;;;-3.20;81.70;;;;;;5035364;28;20030;-66
2020/12/08 12:13:41;;;;;;;82.15;27.33;;;-3.20;81.50;;;;;;5033782;28;20025;-66
2020/12/08 12:16:07;;;;;;;72.63;29.75;;;-3.20;81.70;;;;;;5033479;28;20029;-64
2020/12/08 12:18:33;;;;;;;69.18;26.90;;;-3.10;81.80;;;;;;5033600;28;20025;-65
2020/12/08 12:20:59;;;;;;;57.72;24.58;;;-3.10;81.90;;;;;;5034371;28;20097;-65
2020/12/08 12:23:29;;;;;;;92.28;36.63;;;-3.10;81.90;;;;;;5033405;28;20026;-65
2020/12/08 12:25:54;;;;;;;50.17;20.88;;;-3.10;81.90;;;;;;5033036;28;20456;-65
2020/12/08 12:28:20;;;;;;;49.10;21.60;;;-3.10;81.70;;;;;;5034559;28;20036;-66